KLRJ

Le Mars Municipal Airport

Le Mars, Iowa, USA
METAR KLRJ 260355Z AUTO 00000KT 10SM CLR 24/14 A2975 RMK AO2
Observed Flight Rules
May-26 @ 03:55 UTC (20 minutes ago) Visual Flight Rules
Visibility Clouds
10 miles
  • Clear skies
Temperatures Readings
Current 24°C / 75°F
Dewpoint 14°C / 57°F
Humidity 54%
Altimeter 29.75" Hg
Pressure 1007 hPa
Elevation 365
METAR KLRJ 260355Z AUTO 00000KT 10SM CLR 24/14 A2975 RMK AO2
Observed Flight Rules
May-26 @ 03:55 UTC
(20 minutes ago)
VFR
Clouds
  • Clear skies
Temperature Dewpoint
24°C / 75°F 14°C / 57°F
Humidity Altimeter Pressure
54% 29.75" Hg 1007 hPa